createdAt,value
2022-09-03T00:02:28.749Z,35.52
2022-09-03T00:05:10.156Z,35.37
2022-09-03T00:07:48.887Z,35.40
2022-09-03T00:10:29.528Z,35.37
2022-09-03T00:13:06.340Z,35.73
2022-09-03T00:15:41.692Z,35.73
2022-09-03T00:18:18.212Z,35.53
2022-09-03T00:20:59.426Z,35.48
2022-09-03T00:23:32.955Z,35.37
2022-09-03T00:26:18.397Z,35.60
2022-09-03T00:28:59.132Z,35.62
2022-09-03T00:31:38.358Z,35.62
2022-09-03T00:34:15.986Z,35.46
2022-09-03T00:36:50.321Z,35.64
2022-09-03T00:39:25.083Z,35.53
2022-09-03T00:42:14.096Z,35.56
2022-09-03T00:45:03.844Z,35.62
2022-09-03T00:47:48.629Z,35.73
2022-09-03T00:50:32.779Z,35.57
2022-09-03T00:53:13.482Z,35.69
2022-09-03T00:55:58.438Z,35.71
2022-09-03T00:58:51.993Z,35.91
2022-09-03T01:01:30.977Z,35.77
2022-09-03T01:04:21.148Z,35.75
2022-09-03T01:07:00.799Z,35.87
2022-09-03T01:09:50.278Z,35.72
2022-09-03T01:12:35.963Z,35.94
2022-09-03T01:15:16.371Z,35.79
2022-09-03T01:18:03.373Z,35.76
2022-09-03T01:20:49.950Z,35.87
2022-09-03T01:23:39.452Z,36.02
2022-09-03T01:26:28.573Z,35.83
2022-09-03T01:29:13.639Z,35.79
2022-09-03T01:31:58.621Z,35.98
2022-09-03T01:34:44.976Z,36.00
2022-09-03T01:37:32.312Z,35.97
2022-09-03T01:40:19.232Z,36.10
2022-09-03T01:43:05.204Z,36.15
2022-09-03T01:45:51.585Z,36.30
2022-09-03T01:48:35.768Z,36.17
2022-09-03T01:51:20.957Z,36.25
2022-09-03T01:54:21.027Z,36.06
2022-09-03T01:57:35.773Z,36.25
2022-09-03T02:00:13.470Z,36.27
2022-09-03T02:02:51.114Z,36.28
2022-09-03T02:05:26.203Z,36.31
2022-09-03T02:08:01.586Z,36.43
2022-09-03T02:10:40.973Z,36.58
2022-09-03T02:13:19.685Z,36.62
2022-09-03T02:15:54.807Z,36.30
2022-09-03T02:18:34.612Z,36.42
2022-09-03T02:21:10.756Z,36.56
2022-09-03T02:23:43.823Z,36.46
2022-09-03T02:26:18.080Z,36.72
2022-09-03T02:28:51.905Z,36.57
2022-09-03T02:31:25.296Z,36.63
2022-09-03T02:33:59.963Z,36.80
2022-09-03T02:36:35.041Z,36.68
2022-09-03T02:39:08.256Z,36.75
2022-09-03T02:41:41.499Z,36.85
2022-09-03T02:44:19.953Z,36.75
2022-09-03T02:46:58.096Z,36.78
2022-09-03T02:49:32.916Z,36.93
2022-09-03T02:52:09.531Z,36.88
2022-09-03T02:54:46.033Z,36.95
2022-09-03T02:57:27.473Z,36.88
2022-09-03T03:00:01.373Z,36.97
2022-09-03T03:02:34.390Z,36.96
2022-09-03T03:05:10.071Z,37.03
2022-09-03T03:07:43.088Z,36.98
2022-09-03T03:10:16.201Z,37.02
2022-09-03T03:12:50.381Z,37.14
2022-09-03T03:15:23.132Z,37.10
2022-09-03T03:17:57.332Z,37.19
2022-09-03T03:20:31.699Z,37.08
2022-09-03T03:23:05.585Z,37.35
2022-09-03T03:25:40.046Z,37.26
2022-09-03T03:28:13.708Z,37.34
2022-09-03T03:30:48.552Z,37.14
2022-09-03T03:33:22.288Z,37.41
2022-09-03T03:35:57.750Z,37.30
2022-09-03T03:38:30.525Z,37.20
2022-09-03T03:41:08.724Z,37.55
2022-09-03T03:43:41.623Z,37.62
2022-09-03T03:46:15.080Z,37.60
2022-09-03T03:48:49.221Z,37.47
2022-09-03T03:51:23.657Z,37.34
2022-09-03T03:54:00.173Z,37.27
2022-09-03T03:56:36.554Z,37.17
2022-09-03T03:59:09.709Z,37.39
2022-09-03T04:01:42.541Z,37.47
2022-09-03T04:04:15.301Z,37.61
2022-09-03T04:06:49.518Z,37.41
2022-09-03T04:09:22.490Z,37.35
2022-09-03T04:11:56.815Z,37.36
2022-09-03T04:14:30.032Z,37.96
2022-09-03T04:17:03.581Z,37.51
2022-09-03T04:19:36.692Z,37.82
2022-09-03T04:22:10.614Z,37.53
2022-09-03T04:24:43.504Z,37.68
2022-09-03T04:27:16.211Z,37.43
2022-09-03T04:29:48.928Z,37.61
2022-09-03T04:32:39.596Z,37.65
2022-09-03T04:35:12.355Z,37.96
2022-09-03T04:37:46.388Z,37.57
2022-09-03T04:40:19.280Z,37.61
2022-09-03T04:42:52.390Z,37.81
2022-09-03T04:45:25.602Z,37.56
2022-09-03T04:48:00.176Z,37.69
2022-09-03T04:50:35.593Z,37.90
2022-09-03T04:53:09.663Z,37.65
2022-09-03T04:55:42.466Z,37.98
2022-09-03T04:58:15.413Z,37.98
2022-09-03T05:00:48.068Z,37.77
2022-09-03T05:03:22.019Z,38.10
2022-09-03T05:05:55.952Z,37.73
2022-09-03T05:08:29.984Z,37.63
2022-09-03T05:11:02.732Z,38.07
2022-09-03T05:13:36.971Z,37.91
2022-09-03T05:16:11.634Z,37.80
2022-09-03T05:18:45.120Z,37.70
2022-09-03T05:21:19.525Z,38.04
2022-09-03T05:23:54.043Z,37.77
2022-09-03T05:26:28.532Z,38.22
2022-09-03T05:29:04.260Z,37.75
2022-09-03T05:31:39.185Z,38.16
2022-09-03T05:34:16.380Z,37.96
2022-09-03T05:36:50.822Z,38.13
2022-09-03T05:39:24.931Z,38.13
2022-09-03T05:41:57.767Z,37.99
2022-09-03T05:44:31.583Z,38.08
2022-09-03T05:47:04.303Z,38.15
2022-09-03T05:49:37.025Z,37.75
2022-09-03T05:52:10.076Z,38.29
2022-09-03T05:54:43.902Z,39.81
2022-09-03T05:57:16.555Z,41.84
2022-09-03T05:59:49.220Z,42.55
2022-09-03T06:02:22.090Z,42.98
2022-09-03T06:04:56.049Z,42.52
2022-09-03T06:07:29.291Z,42.96
2022-09-03T06:10:03.916Z,42.66
2022-09-03T06:12:37.141Z,42.64
2022-09-03T06:15:10.685Z,42.51
2022-09-03T06:17:43.606Z,42.26
2022-09-03T06:20:16.293Z,43.07
2022-09-03T06:22:52.666Z,42.71
2022-09-03T06:25:27.668Z,42.24
2022-09-03T06:28:02.219Z,42.67
2022-09-03T06:30:36.223Z,42.92
2022-09-03T06:33:08.901Z,43.26
2022-09-03T06:35:43.063Z,43.49
2022-09-03T06:38:16.196Z,43.31
2022-09-03T06:40:54.832Z,43.36
2022-09-03T06:43:27.842Z,43.65
2022-09-03T06:46:01.437Z,43.41
2022-09-03T06:48:34.836Z,42.94
2022-09-03T06:51:09.268Z,43.44
2022-09-03T06:53:44.256Z,42.73
2022-09-03T06:56:20.805Z,43.42
2022-09-03T06:58:54.884Z,43.14
2022-09-03T07:01:31.610Z,42.60
2022-09-03T07:04:06.139Z,42.39
2022-09-03T07:06:42.281Z,42.71
2022-09-03T07:09:15.510Z,42.69
2022-09-03T07:11:49.804Z,42.49
2022-09-03T07:14:23.106Z,42.67
2022-09-03T07:16:55.954Z,42.15
2022-09-03T07:19:29.048Z,42.00
2022-09-03T07:22:01.729Z,41.84
2022-09-03T07:24:34.424Z,42.25
2022-09-03T07:27:11.848Z,41.79
2022-09-03T07:29:48.161Z,41.35
2022-09-03T07:32:20.820Z,41.69
2022-09-03T07:34:53.536Z,41.32
2022-09-03T07:37:26.296Z,41.25
2022-09-03T07:39:59.254Z,41.42
2022-09-03T07:42:33.168Z,41.07
2022-09-03T07:45:10.107Z,40.92
2022-09-03T07:47:49.484Z,40.41
2022-09-03T07:50:22.660Z,40.83
2022-09-03T07:52:57.562Z,40.59
2022-09-03T07:55:30.474Z,40.33
2022-09-03T07:58:04.544Z,39.98
2022-09-03T08:00:37.385Z,40.13
2022-09-03T08:03:11.068Z,40.14
2022-09-03T08:05:43.772Z,40.34
2022-09-03T08:08:17.828Z,40.25
2022-09-03T08:10:50.765Z,40.24
2022-09-03T08:13:24.680Z,40.21
2022-09-03T08:16:01.398Z,39.67
2022-09-03T08:18:37.885Z,39.39
2022-09-03T08:21:14.866Z,39.63
2022-09-03T08:23:49.235Z,39.66
2022-09-03T08:26:23.773Z,39.88
2022-09-03T08:28:57.925Z,39.89
2022-09-03T08:31:32.356Z,39.63
2022-09-03T08:34:07.796Z,39.24
2022-09-03T08:36:42.203Z,39.34
2022-09-03T08:39:14.986Z,38.82
2022-09-03T08:42:03.562Z,39.09
2022-09-03T08:44:47.039Z,38.88
2022-09-03T08:47:22.976Z,39.17
2022-09-03T08:49:59.216Z,39.36
2022-09-03T08:52:35.399Z,38.39
2022-09-03T08:55:19.228Z,38.85
2022-09-03T08:57:56.258Z,38.91
2022-09-03T09:00:42.015Z,37.91
2022-09-03T09:03:32.992Z,38.55
2022-09-03T09:06:15.404Z,37.89
2022-09-03T09:09:00.316Z,37.54
2022-09-03T09:11:47.154Z,37.39
2022-09-03T09:14:24.340Z,37.57
2022-09-03T09:17:09.365Z,36.11
2022-09-03T09:19:56.006Z,36.55
2022-09-03T09:22:33.990Z,37.21
2022-09-03T09:25:14.375Z,37.06
2022-09-03T09:27:52.070Z,36.42
2022-09-03T09:30:24.862Z,36.56
2022-09-03T09:33:00.623Z,36.06
2022-09-03T09:35:33.378Z,36.01
2022-09-03T09:38:06.038Z,35.81
2022-09-03T09:40:45.034Z,34.99
2022-09-03T09:43:21.519Z,35.63
2022-09-03T09:45:55.610Z,35.41
2022-09-03T09:48:34.015Z,35.88
2022-09-03T09:51:09.939Z,35.16
2022-09-03T09:53:44.996Z,34.92
2022-09-03T09:56:25.526Z,35.18
2022-09-03T09:59:08.841Z,35.19
2022-09-03T10:01:44.099Z,35.50
2022-09-03T10:04:32.871Z,34.60
2022-09-03T10:07:22.923Z,35.00
2022-09-03T10:10:07.791Z,35.11
2022-09-03T10:12:43.406Z,35.30
2022-09-03T10:15:24.958Z,34.51
2022-09-03T10:18:03.188Z,34.47
2022-09-03T10:20:47.240Z,34.40
2022-09-03T10:23:24.904Z,34.32
2022-09-03T10:26:07.345Z,33.85
2022-09-03T10:28:41.770Z,32.96
2022-09-03T10:31:31.877Z,33.32
2022-09-03T10:34:13.888Z,34.47
2022-09-03T10:36:56.534Z,33.98
2022-09-03T10:39:43.250Z,34.09
2022-09-03T10:42:31.144Z,33.69
2022-09-03T10:45:14.771Z,32.79
2022-09-03T10:48:27.957Z,32.89
2022-09-03T10:51:07.685Z,31.92
2022-09-03T10:53:55.989Z,31.78
2022-09-03T10:56:34.869Z,32.00
2022-09-03T10:59:25.095Z,32.24
2022-09-03T11:02:19.576Z,32.03
2022-09-03T11:04:59.778Z,31.65
2022-09-03T11:07:40.189Z,31.55
2022-09-03T11:10:19.301Z,30.99
2022-09-03T11:13:02.426Z,30.84
2022-09-03T11:15:41.173Z,31.00
2022-09-03T11:18:22.852Z,30.64
2022-09-03T11:21:01.888Z,30.45
2022-09-03T11:23:40.626Z,30.71
2022-09-03T11:26:19.343Z,30.29
2022-09-03T11:29:00.018Z,30.25
2022-09-03T11:31:47.705Z,29.03
2022-09-03T11:34:32.638Z,28.56
2022-09-03T11:37:18.631Z,29.16
2022-09-03T11:40:04.706Z,29.75
2022-09-03T11:42:41.984Z,28.69
2022-09-03T11:45:22.843Z,29.88
2022-09-03T11:47:56.285Z,27.38
2022-09-03T11:50:31.643Z,28.44
2022-09-03T11:53:23.110Z,28.10
2022-09-03T11:55:58.539Z,27.69
2022-09-03T11:58:34.748Z,27.89
2022-09-03T12:01:14.996Z,27.74
2022-09-03T12:03:54.338Z,28.13
2022-09-03T12:06:43.757Z,27.67
2022-09-03T12:09:35.131Z,26.59
2022-09-03T12:12:23.966Z,27.24
2022-09-03T12:15:07.326Z,27.21
2022-09-03T12:18:10.785Z,26.04
2022-09-03T12:20:43.959Z,25.84
2022-09-03T12:23:29.238Z,25.95
2022-09-03T12:26:05.737Z,25.96
2022-09-03T12:28:44.801Z,26.10
2022-09-03T12:31:22.902Z,25.24
2022-09-03T12:33:59.173Z,25.73
2022-09-03T12:36:38.969Z,26.14
2022-09-03T12:39:13.110Z,25.81
2022-09-03T12:42:01.271Z,24.30
2022-09-03T12:44:41.421Z,24.44
2022-09-03T12:47:36.539Z,24.11
2022-09-03T12:50:12.421Z,24.24
2022-09-03T12:52:48.788Z,24.40
2022-09-03T12:55:34.679Z,24.14
2022-09-03T12:58:14.060Z,24.32
2022-09-03T13:00:51.064Z,24.29
2022-09-03T13:03:33.909Z,24.54
2022-09-03T13:06:10.544Z,24.60
2022-09-03T13:08:50.336Z,24.21
2022-09-03T13:11:25.472Z,24.53
2022-09-03T13:14:05.370Z,23.52
2022-09-03T13:17:16.422Z,24.36
2022-09-03T13:20:08.875Z,24.48
2022-09-03T13:23:11.924Z,23.41
2022-09-03T13:25:50.802Z,24.13
2022-09-03T13:28:40.102Z,24.28
2022-09-03T13:31:27.175Z,23.22
2022-09-03T13:34:04.463Z,23.34
2022-09-03T13:36:47.197Z,24.09
2022-09-03T13:39:27.627Z,23.50
2022-09-03T13:42:07.551Z,23.69
2022-09-03T13:44:46.211Z,23.38
2022-09-03T13:47:30.679Z,23.67
2022-09-03T13:50:24.188Z,23.27
2022-09-03T13:53:05.165Z,24.22
2022-09-03T13:55:45.084Z,24.32
2022-09-03T13:58:25.346Z,24.30
2022-09-03T14:01:13.410Z,23.08
2022-09-03T14:03:49.581Z,23.51
2022-09-03T14:06:37.014Z,24.65
2022-09-03T14:09:16.928Z,25.08
2022-09-03T14:11:56.054Z,25.20
2022-09-03T14:14:44.708Z,24.49
2022-09-03T14:17:38.438Z,23.29
2022-09-03T14:20:19.796Z,23.61
2022-09-03T14:22:58.205Z,24.93
2022-09-03T14:25:33.453Z,24.77
2022-09-03T14:28:20.432Z,25.10
2022-09-03T14:31:00.650Z,24.87
2022-09-03T14:33:41.005Z,23.69
2022-09-03T14:36:21.468Z,24.03
2022-09-03T14:39:10.609Z,23.72
2022-09-03T14:42:00.315Z,23.46
2022-09-03T14:45:08.621Z,23.75
2022-09-03T14:47:58.369Z,23.83
2022-09-03T14:50:55.157Z,23.55
2022-09-03T14:54:02.764Z,23.13
2022-09-03T14:56:48.835Z,24.11
2022-09-03T14:59:43.480Z,24.09
2022-09-03T15:02:45.508Z,24.18
2022-09-03T15:05:28.899Z,23.70
2022-09-03T15:08:10.331Z,24.10
2022-09-03T15:10:47.243Z,23.99
2022-09-03T15:13:22.914Z,23.12
2022-09-03T15:16:31.407Z,23.97
2022-09-03T15:19:14.430Z,23.94
2022-09-03T15:22:04.185Z,23.48
2022-09-03T15:24:51.686Z,23.47
2022-09-03T15:27:41.981Z,23.63
2022-09-03T15:30:19.347Z,24.02
2022-09-03T15:33:06.495Z,23.84
2022-09-03T15:36:18.118Z,23.63
2022-09-03T15:38:57.512Z,23.76
2022-09-03T15:41:41.284Z,23.86
2022-09-03T15:44:19.187Z,23.63
2022-09-03T15:46:58.755Z,24.09
2022-09-03T15:49:46.158Z,24.29
2022-09-03T15:52:31.412Z,24.25
2022-09-03T15:55:11.080Z,24.40
2022-09-03T15:57:54.741Z,24.72
2022-09-03T16:00:32.519Z,24.37
2022-09-03T16:03:10.882Z,24.54
2022-09-03T16:05:50.848Z,24.62
2022-09-03T16:08:31.315Z,24.58
2022-09-03T16:11:14.216Z,24.79
2022-09-03T16:13:58.366Z,24.97
2022-09-03T16:16:48.297Z,24.99
2022-09-03T16:19:29.404Z,25.25
2022-09-03T16:22:08.488Z,25.17
2022-09-03T16:24:46.145Z,24.89
2022-09-03T16:27:23.751Z,25.31
2022-09-03T16:30:03.691Z,25.19
2022-09-03T16:33:01.184Z,25.42
2022-09-03T16:35:46.580Z,25.47
2022-09-03T16:38:32.274Z,25.42
2022-09-03T16:41:16.738Z,25.00
2022-09-03T16:44:06.030Z,25.57
2022-09-03T16:46:46.576Z,25.51
2022-09-03T16:49:38.011Z,25.60
2022-09-03T16:52:33.531Z,24.42
2022-09-03T16:55:21.426Z,24.81
2022-09-03T16:58:12.593Z,25.97
2022-09-03T17:01:00.943Z,26.68
2022-09-03T17:04:11.684Z,28.64
2022-09-03T17:06:57.366Z,27.85
2022-09-03T17:09:52.958Z,27.46
2022-09-03T17:12:36.607Z,27.86
2022-09-03T17:15:31.496Z,28.36
2022-09-03T17:18:27.677Z,28.05
2022-09-03T17:21:13.044Z,28.17
2022-09-03T17:24:33.700Z,28.10
2022-09-03T17:27:21.226Z,28.19
2022-09-03T17:30:05.192Z,28.83
2022-09-03T17:32:57.344Z,28.81
2022-09-03T17:35:39.514Z,28.38
2022-09-03T17:38:28.849Z,28.85
2022-09-03T17:41:16.047Z,28.95
2022-09-03T17:44:00.594Z,28.78
2022-09-03T17:46:45.494Z,28.92
2022-09-03T17:49:24.968Z,32.08
2022-09-03T17:52:04.659Z,32.14
2022-09-03T17:54:44.177Z,32.93
2022-09-03T17:57:24.661Z,33.95
2022-09-03T18:00:02.597Z,34.76
2022-09-03T18:02:46.984Z,35.15
2022-09-03T18:05:23.609Z,35.97
2022-09-03T18:08:04.896Z,36.85
2022-09-03T18:10:48.442Z,36.28
2022-09-03T18:13:32.553Z,37.33
2022-09-03T18:16:10.709Z,38.66
2022-09-03T18:18:48.799Z,38.05
2022-09-03T18:21:41.184Z,39.11
2022-09-03T18:24:46.649Z,39.25
2022-09-03T18:27:51.504Z,39.67
2022-09-03T18:30:46.698Z,39.58
2022-09-03T18:33:42.023Z,39.73
2022-09-03T18:36:34.301Z,40.13
2022-09-03T18:39:33.452Z,40.84
2022-09-03T18:42:31.491Z,41.08
2022-09-03T18:45:48.816Z,40.58
2022-09-03T18:48:51.884Z,41.06
2022-09-03T18:51:53.664Z,40.15
2022-09-03T18:55:07.384Z,41.06
2022-09-03T18:58:13.471Z,41.23
2022-09-03T19:01:11.673Z,41.68
2022-09-03T19:04:11.080Z,42.10
2022-09-03T19:07:09.872Z,42.44
2022-09-03T19:10:10.127Z,42.55
2022-09-03T19:13:13.723Z,42.43
2022-09-03T19:16:06.864Z,42.57
2022-09-03T19:19:19.782Z,42.77
2022-09-03T19:22:18.100Z,43.45
2022-09-03T19:25:12.035Z,43.63
2022-09-03T19:28:14.045Z,43.82
2022-09-03T19:31:24.374Z,44.03
2022-09-03T19:34:24.927Z,43.87
2022-09-03T19:37:22.914Z,44.24
2022-09-03T19:40:30.393Z,44.44
2022-09-03T19:43:30.815Z,44.82
2022-09-03T19:46:37.235Z,45.19
2022-09-03T19:49:37.311Z,45.02
2022-09-03T19:52:36.196Z,45.62
2022-09-03T19:55:31.469Z,46.19
2022-09-03T19:58:42.041Z,45.71
2022-09-03T20:01:32.979Z,45.90
2022-09-03T20:04:31.122Z,46.38
2022-09-03T20:07:25.701Z,46.86
2022-09-03T20:10:22.500Z,46.77
2022-09-03T20:13:04.340Z,47.15
2022-09-03T20:15:48.186Z,47.33
2022-09-03T20:18:35.931Z,47.37
2022-09-03T20:21:17.376Z,47.67
2022-09-03T20:23:58.392Z,47.28
2022-09-03T20:26:47.373Z,47.57
2022-09-03T20:29:49.408Z,46.03
2022-09-03T20:32:44.052Z,44.81
2022-09-03T20:35:24.574Z,43.54
2022-09-03T20:38:08.453Z,43.32
2022-09-03T20:40:47.783Z,43.79
2022-09-03T20:43:35.152Z,43.15
2022-09-03T20:46:21.356Z,43.06
2022-09-03T20:49:08.448Z,42.91
2022-09-03T20:51:46.559Z,42.70
2022-09-03T20:54:22.883Z,42.36
2022-09-03T20:57:19.195Z,42.31
2022-09-03T21:00:06.603Z,42.91
2022-09-03T21:03:05.985Z,42.41
2022-09-03T21:05:44.398Z,41.93
2022-09-03T21:08:30.845Z,42.21
2022-09-03T21:11:08.901Z,42.17
2022-09-03T21:13:51.563Z,42.16
2022-09-03T21:16:34.463Z,42.33
2022-09-03T21:19:12.498Z,41.91
2022-09-03T21:21:54.381Z,42.03
2022-09-03T21:24:32.056Z,42.44
2022-09-03T21:27:10.904Z,42.31
2022-09-03T21:29:48.025Z,41.80
2022-09-03T21:32:26.300Z,42.33
2022-09-03T21:35:06.154Z,42.06
2022-09-03T21:37:42.907Z,42.28
2022-09-03T21:40:24.176Z,42.18
2022-09-03T21:43:02.736Z,42.19
2022-09-03T21:45:40.196Z,42.27
2022-09-03T21:48:19.973Z,42.66
2022-09-03T21:50:57.323Z,42.27
2022-09-03T21:53:33.683Z,42.48
2022-09-03T21:56:36.237Z,42.56
2022-09-03T21:59:19.682Z,42.60
2022-09-03T22:02:03.993Z,42.39
2022-09-03T22:04:38.351Z,42.88
2022-09-03T22:07:18.053Z,42.97
2022-09-03T22:09:55.784Z,43.13
2022-09-03T22:12:36.839Z,42.70
2022-09-03T22:15:13.227Z,42.71
2022-09-03T22:17:56.856Z,43.81
2022-09-03T22:20:31.025Z,43.33
2022-09-03T22:23:13.925Z,43.15
2022-09-03T22:25:58.980Z,43.00
2022-09-03T22:28:42.823Z,42.96
2022-09-03T22:31:22.001Z,43.25
2022-09-03T22:34:03.543Z,43.19
2022-09-03T22:36:41.699Z,43.16
2022-09-03T22:39:26.796Z,43.20
2022-09-03T22:42:15.760Z,43.79
2022-09-03T22:45:10.911Z,44.04
2022-09-03T22:47:51.935Z,43.75
2022-09-03T22:50:32.139Z,44.00
2022-09-03T22:53:18.955Z,44.09
2022-09-03T22:55:59.717Z,44.14
2022-09-03T22:58:36.429Z,44.59
2022-09-03T23:01:14.520Z,43.54
2022-09-03T23:03:55.009Z,44.07
2022-09-03T23:06:32.844Z,43.70
2022-09-03T23:09:10.017Z,43.63
2022-09-03T23:11:47.238Z,44.44
2022-09-03T23:14:25.117Z,44.99
2022-09-03T23:17:04.375Z,44.29
2022-09-03T23:19:42.181Z,45.39
2022-09-03T23:22:22.982Z,44.91
2022-09-03T23:25:03.756Z,45.50
2022-09-03T23:27:40.566Z,46.04
2022-09-03T23:30:13.794Z,45.15
2022-09-03T23:32:46.847Z,45.77
2022-09-03T23:35:21.404Z,45.16
2022-09-03T23:38:15.190Z,45.14
2022-09-03T23:40:50.823Z,45.83
2022-09-03T23:44:01.776Z,44.54
2022-09-03T23:46:39.475Z,44.25
2022-09-03T23:49:32.333Z,44.10
2022-09-03T23:52:23.171Z,44.06
2022-09-03T23:55:04.348Z,44.09
2022-09-03T23:57:41.426Z,44.09
